Time;durP1;ratioP1;P1;durP2;ratioP2;P2;SDS_P1;SDS_P2;PMS_P1;PMS_P2;Temp;Humidity;BMP_temperature;BMP_pressure;BME280_temperature;BME280_humidity;BME280_pressure;Samples;Min_cycle;Max_cycle;Signal;HPM_P1;HPM_P2
2023/01/01 00:01:11;;;;;;;16.85;6.93;;;;;;;;;;5071025;28;20466;-71
2023/01/01 00:03:38;;;;;;;17.38;7.38;;;;;;;;;;5104585;28;20486;-71
2023/01/01 00:06:07;;;;;;;18.08;7.25;;;;;;;;;;5070957;28;20123;-71
2023/01/01 00:08:34;;;;;;;16.15;7.47;;;;;;;;;;5071846;28;20548;-71
2023/01/01 00:11:01;;;;;;;20.38;7.63;;;;;;;;;;5071940;28;20128;-71
2023/01/01 00:13:27;;;;;;;21.88;9.57;;;;;;;;;;5070618;28;20037;-71
2023/01/01 00:15:53;;;;;;;15.10;7.60;;;;;;;;;;5072225;28;20066;-71
2023/01/01 00:18:19;;;;;;;19.52;8.68;;;;;;;;;;5070378;28;20036;-71
2023/01/01 00:20:45;;;;;;;20.88;8.32;;;;;;;;;;5071117;28;20504;-71
2023/01/01 00:23:11;;;;;;;20.90;9.20;;;;;;;;;;5070718;28;20450;-71
2023/01/01 00:25:39;;;;;;;25.80;10.57;;;;;;;;;;5070248;28;20044;-71
2023/01/01 00:28:06;;;;;;;21.80;9.40;;;;;;;;;;5070711;28;20044;-70
2023/01/01 00:30:32;;;;;;;24.55;10.80;;;;;;;;;;5070784;28;20084;-72
2023/01/01 00:32:58;;;;;;;22.05;11.35;;;;;;;;;;5073106;28;20044;-71
2023/01/01 00:35:25;;;;;;;25.98;12.52;;;;;;;;;;5070115;28;20050;-70
2023/01/01 00:37:51;;;;;;;25.27;13.48;;;;;;;;;;5072635;28;20036;-72
2023/01/01 00:40:17;;;;;;;28.40;13.75;;;;;;;;;;5071617;28;20041;-72
2023/01/01 00:42:43;;;;;;;26.42;15.63;;;;;;;;;;5072085;28;20036;-71
2023/01/01 00:45:09;;;;;;;30.48;16.15;;;;;;;;;;5070578;28;20048;-71
2023/01/01 00:47:36;;;;;;;31.38;16.58;;;;;;;;;;5071325;28;20037;-72
2023/01/01 00:50:05;;;;;;;30.38;17.25;;;;;;;;;;5070426;28;20055;-71
2023/01/01 00:52:31;;;;;;;31.35;16.90;;;;;;;;;;5070143;28;20090;-71
2023/01/01 00:54:57;;;;;;;29.95;17.40;;;;;;;;;;5070865;28;20050;-71
2023/01/01 00:57:23;;;;;;;31.95;18.92;;;;;;;;;;5069945;28;20501;-72
2023/01/01 00:59:49;;;;;;;36.20;19.05;;;;;;;;;;5070356;28;20305;-72
2023/01/01 01:02:15;;;;;;;35.72;20.70;;;;;;;;;;5070062;28;20048;-71
2023/01/01 01:04:41;;;;;;;38.25;21.67;;;;;;;;;;5055686;28;20489;-71
2023/01/01 01:07:10;;;;;;;35.92;22.20;;;;;;;;;;5074091;28;20090;-71
2023/01/01 01:09:42;;;;;;;39.10;22.45;;;;;;;;;;5073638;28;20044;-71
2023/01/01 01:12:08;;;;;;;38.90;23.52;;;;;;;;;;5073662;28;20045;-71
2023/01/01 01:14:34;;;;;;;40.30;24.42;;;;;;;;;;5056783;28;20044;-71
2023/01/01 01:17:00;;;;;;;40.53;25.70;;;;;;;;;;5075125;28;20044;-71
2023/01/01 01:19:26;;;;;;;41.30;25.08;;;;;;;;;;5073461;28;20040;-71
2023/01/01 01:21:52;;;;;;;43.33;24.88;;;;;;;;;;5073678;28;20071;-71
2023/01/01 01:24:18;;;;;;;41.65;24.83;;;;;;;;;;5073543;28;20107;-71
2023/01/01 01:26:44;;;;;;;45.28;25.83;;;;;;;;;;5073005;28;20139;-71
2023/01/01 01:29:10;;;;;;;41.63;24.77;;;;;;;;;;5073922;28;20396;-71
2023/01/01 01:31:36;;;;;;;44.58;24.85;;;;;;;;;;5072388;28;20447;-71
2023/01/01 01:34:03;;;;;;;38.50;24.27;;;;;;;;;;5060365;28;20033;-71
2023/01/01 01:36:29;;;;;;;38.97;23.00;;;;;;;;;;5073262;28;20120;-71
2023/01/01 01:38:55;;;;;;;38.25;21.63;;;;;;;;;;5073741;28;20374;-71
2023/01/01 01:41:22;;;;;;;39.72;21.45;;;;;;;;;;5073409;28;20388;-71
2023/01/01 01:44:02;;;;;;;38.20;21.40;;;;;;;;;;5073037;28;20041;-71
2023/01/01 01:46:41;;;;;;;30.20;18.35;;;;;;;;;;5072880;28;20097;-72
2023/01/01 01:49:27;;;;;;;33.88;18.63;;;;;;;;;;5073449;28;20098;-71
2023/01/01 01:51:53;;;;;;;34.05;18.38;;;;;;;;;;5073085;28;20413;-71
2023/01/01 01:54:22;;;;;;;30.45;17.45;;;;;;;;;;5073376;28;20409;-71
2023/01/01 01:56:54;;;;;;;32.22;16.17;;;;;;;;;;5073940;28;20048;-71
2023/01/01 01:59:22;;;;;;;26.85;15.40;;;;;;;;;;5073161;28;20059;-71
2023/01/01 02:01:48;;;;;;;28.85;14.95;;;;;;;;;;5074169;28;20110;-71
2023/01/01 02:04:14;;;;;;;27.95;14.93;;;;;;;;;;5072834;28;20036;-71
2023/01/01 02:06:40;;;;;;;26.45;13.90;;;;;;;;;;5056108;28;20036;-72
2023/01/01 02:09:07;;;;;;;27.75;14.98;;;;;;;;;;5054802;28;20037;-71
2023/01/01 02:11:33;;;;;;;24.58;13.02;;;;;;;;;;5061133;28;20119;-71
2023/01/01 02:14:00;;;;;;;27.50;14.80;;;;;;;;;;5074102;28;20043;-71
2023/01/01 02:16:26;;;;;;;21.10;12.60;;;;;;;;;;5072355;28;20406;-71
2023/01/01 02:19:09;;;;;;;24.85;12.85;;;;;;;;;;5056022;28;20485;-71
2023/01/01 02:21:45;;;;;;;23.60;12.07;;;;;;;;;;5072289;28;20041;-71
2023/01/01 02:24:17;;;;;;;22.95;11.48;;;;;;;;;;5055792;28;20103;-71
2023/01/01 02:26:43;;;;;;;23.13;11.60;;;;;;;;;;5055745;28;20079;-71
2023/01/01 02:29:28;;;;;;;23.63;10.57;;;;;;;;;;5072459;28;20119;-71
2023/01/01 02:32:23;;;;;;;25.52;10.73;;;;;;;;;;5073382;28;20476;-72
2023/01/01 02:35:33;;;;;;;21.00;10.07;;;;;;;;;;5058894;28;20198;-71
2023/01/01 02:37:52;;;;;;;23.42;10.00;;;;;;;;;;5051753;28;20105;-71
2023/01/01 02:40:20;;;;;;;19.52;9.27;;;;;;;;;;5072429;28;20530;-71
2023/01/01 02:42:47;;;;;;;19.45;9.00;;;;;;;;;;5055391;28;20036;-71
2023/01/01 02:45:13;;;;;;;19.75;8.52;;;;;;;;;;5072441;28;20520;-70
2023/01/01 02:47:39;;;;;;;18.35;8.25;;;;;;;;;;5069107;28;20098;-71
2023/01/01 02:50:18;;;;;;;18.75;7.78;;;;;;;;;;5055096;28;20075;-71
2023/01/01 02:52:56;;;;;;;19.70;8.30;;;;;;;;;;5071517;28;20032;-72
2023/01/01 02:55:36;;;;;;;18.38;7.05;;;;;;;;;;5072099;28;20397;-71
2023/01/01 03:00:58;;;;;;;16.08;6.53;;;;;;;;;;5067089;28;20071;-71
2023/01/01 03:03:28;;;;;;;18.00;5.57;;;;;;;;;;5055092;28;20060;-72
2023/01/01 03:06:23;;;;;;;14.00;5.18;;;;;;;;;;5104767;28;20082;-71
2023/01/01 03:08:49;;;;;;;20.15;5.07;;;;;;;;;;5071584;28;20221;-71
2023/01/01 03:11:17;;;;;;;15.15;4.60;;;;;;;;;;5071812;28;20119;-71
2023/01/01 03:13:54;;;;;;;14.90;4.57;;;;;;;;;;5071016;28;20048;-71
2023/01/01 03:16:26;;;;;;;13.60;4.15;;;;;;;;;;5055203;28;20062;-71
2023/01/01 03:19:11;;;;;;;12.90;4.00;;;;;;;;;;5070910;28;20044;-71
2023/01/01 03:21:42;;;;;;;13.30;4.57;;;;;;;;;;5054731;28;20040;-71
2023/01/01 03:24:18;;;;;;;15.98;4.10;;;;;;;;;;5072569;28;20041;-71
2023/01/01 03:26:46;;;;;;;15.57;4.22;;;;;;;;;;5054336;28;20044;-71
2023/01/01 03:29:13;;;;;;;11.43;3.78;;;;;;;;;;5072326;28;20029;-71
2023/01/01 03:31:42;;;;;;;11.90;4.15;;;;;;;;;;5072595;28;20100;-71
2023/01/01 03:34:12;;;;;;;10.98;4.00;;;;;;;;;;5067194;28;20036;-71
2023/01/01 03:36:39;;;;;;;12.93;3.72;;;;;;;;;;5072458;28;20094;-71
2023/01/01 03:39:10;;;;;;;10.10;3.72;;;;;;;;;;5071062;28;20043;-71
2023/01/01 03:41:40;;;;;;;10.63;3.50;;;;;;;;;;5071542;28;20040;-71
2023/01/01 03:44:18;;;;;;;12.80;2.95;;;;;;;;;;5054297;28;20167;-71
2023/01/01 03:46:44;;;;;;;9.43;2.95;;;;;;;;;;5070970;28;20044;-71
2023/01/01 03:49:11;;;;;;;10.82;3.25;;;;;;;;;;5037732;28;20041;-71
2023/01/01 03:51:44;;;;;;;10.52;2.90;;;;;;;;;;5072334;28;20090;-71
2023/01/01 03:54:19;;;;;;;13.32;3.20;;;;;;;;;;5070660;28;20052;-71
2023/01/01 03:56:47;;;;;;;13.93;3.53;;;;;;;;;;5070706;28;20032;-71
2023/01/01 03:59:20;;;;;;;9.05;2.88;;;;;;;;;;5072151;28;20076;-71
2023/01/01 04:01:50;;;;;;;11.88;2.90;;;;;;;;;;5045462;28;20041;-71
2023/01/01 04:04:16;;;;;;;9.65;3.08;;;;;;;;;;5070974;28;20517;-71
2023/01/01 04:06:42;;;;;;;10.75;3.42;;;;;;;;;;5070826;28;20398;-71
2023/01/01 04:09:14;;;;;;;14.13;4.22;;;;;;;;;;5071139;28;20045;-71
2023/01/01 04:12:03;;;;;;;13.27;3.72;;;;;;;;;;5070865;28;20470;-71
2023/01/01 04:14:30;;;;;;;14.98;4.20;;;;;;;;;;5070837;28;20036;-71
2023/01/01 04:16:57;;;;;;;8.57;3.03;;;;;;;;;;5071652;28;20040;-71
2023/01/01 04:19:23;;;;;;;14.35;3.40;;;;;;;;;;5072295;28;20397;-71
2023/01/01 04:21:49;;;;;;;9.50;2.85;;;;;;;;;;5071645;28;20052;-71
2023/01/01 04:24:15;;;;;;;9.65;2.80;;;;;;;;;;5070768;28;20085;-71
2023/01/01 04:26:41;;;;;;;12.23;2.80;;;;;;;;;;5054282;28;20090;-71
2023/01/01 04:29:07;;;;;;;9.98;2.70;;;;;;;;;;5070632;28;20044;-71
2023/01/01 04:31:34;;;;;;;12.55;3.22;;;;;;;;;;5070726;28;20082;-71
2023/01/01 04:34:00;;;;;;;12.27;3.22;;;;;;;;;;5069512;28;20040;-71
2023/01/01 04:36:26;;;;;;;10.88;3.35;;;;;;;;;;5070598;28;20036;-71
2023/01/01 04:38:52;;;;;;;12.57;3.28;;;;;;;;;;5071226;28;20037;-71
2023/01/01 04:41:19;;;;;;;10.73;3.08;;;;;;;;;;5074718;28;20047;-71
2023/01/01 04:43:49;;;;;;;9.73;2.85;;;;;;;;;;5074455;28;20119;-71
2023/01/01 04:46:16;;;;;;;10.25;2.80;;;;;;;;;;5076032;28;20045;-71
2023/01/01 04:48:42;;;;;;;9.35;2.70;;;;;;;;;;5074440;28;20055;-71
2023/01/01 04:51:09;;;;;;;13.18;3.33;;;;;;;;;;5073537;28;20080;-71
2023/01/01 04:53:35;;;;;;;14.82;3.58;;;;;;;;;;5074401;28;20046;-71
2023/01/01 04:56:12;;;;;;;12.38;2.83;;;;;;;;;;5057034;28;20086;-71
2023/01/01 04:58:39;;;;;;;11.65;2.95;;;;;;;;;;5075432;28;20068;-71
2023/01/01 05:01:05;;;;;;;12.32;2.75;;;;;;;;;;5051537;28;20041;-71
2023/01/01 05:03:32;;;;;;;5.60;2.40;;;;;;;;;;5057429;28;20043;-71
2023/01/01 05:06:01;;;;;;;6.90;2.28;;;;;;;;;;5073604;28;20048;-71
2023/01/01 05:08:34;;;;;;;7.95;2.15;;;;;;;;;;5057559;28;20101;-71
2023/01/01 05:11:04;;;;;;;8.40;1.98;;;;;;;;;;5073449;28;20049;-71
2023/01/01 05:13:30;;;;;;;9.90;2.35;;;;;;;;;;5074349;28;20462;-71
2023/01/01 05:15:57;;;;;;;8.68;1.90;;;;;;;;;;5073675;28;20443;-72
2023/01/01 05:18:23;;;;;;;6.45;1.70;;;;;;;;;;5074061;28;20470;-71
2023/01/01 05:20:49;;;;;;;6.22;1.60;;;;;;;;;;5074042;28;20482;-72
2023/01/01 05:23:16;;;;;;;11.02;1.70;;;;;;;;;;5074384;28;20043;-71
2023/01/01 05:25:42;;;;;;;9.10;1.95;;;;;;;;;;5073569;28;20076;-71
2023/01/01 05:28:09;;;;;;;7.47;1.60;;;;;;;;;;5056612;28;20115;-71
2023/01/01 05:30:39;;;;;;;6.30;1.55;;;;;;;;;;5056636;28;20040;-71
2023/01/01 05:33:05;;;;;;;5.63;1.40;;;;;;;;;;5073853;28;20468;-71
2023/01/01 05:35:31;;;;;;;5.43;1.27;;;;;;;;;;5072750;28;20028;-71
2023/01/01 05:37:57;;;;;;;6.30;1.30;;;;;;;;;;5073300;28;20101;-71
2023/01/01 05:40:23;;;;;;;6.18;1.25;;;;;;;;;;5073675;28;20537;-71
2023/01/01 05:42:49;;;;;;;6.85;1.20;;;;;;;;;;5073839;28;20523;-71
2023/01/01 05:45:15;;;;;;;4.13;1.00;;;;;;;;;;5072666;28;20040;-71
2023/01/01 05:47:41;;;;;;;5.55;1.10;;;;;;;;;;5059937;28;20123;-71
2023/01/01 05:50:08;;;;;;;6.68;1.15;;;;;;;;;;5055143;28;20059;-71
2023/01/01 05:52:34;;;;;;;7.40;1.20;;;;;;;;;;5056478;28;20055;-71
2023/01/01 05:55:00;;;;;;;5.78;1.08;;;;;;;;;;5056316;28;20097;-71
2023/01/01 05:57:27;;;;;;;4.90;1.65;;;;;;;;;;5056641;28;20036;-71
2023/01/01 05:59:54;;;;;;;7.30;1.60;;;;;;;;;;5073232;28;20188;-71
2023/01/01 06:02:20;;;;;;;4.45;0.90;;;;;;;;;;5056474;28;20500;-71
2023/01/01 06:04:46;;;;;;;6.60;0.95;;;;;;;;;;5073059;28;20127;-71
2023/01/01 06:07:12;;;;;;;5.38;1.10;;;;;;;;;;5072721;28;20044;-72
2023/01/01 06:09:38;;;;;;;5.78;1.38;;;;;;;;;;5056351;28;20040;-71
2023/01/01 06:12:04;;;;;;;6.30;1.20;;;;;;;;;;5072455;28;20127;-71
2023/01/01 06:14:30;;;;;;;7.25;1.23;;;;;;;;;;5072953;28;20107;-71
2023/01/01 06:16:56;;;;;;;6.47;1.25;;;;;;;;;;5072735;28;20036;-71
2023/01/01 06:19:22;;;;;;;4.38;1.00;;;;;;;;;;5055809;28;20143;-71
2023/01/01 06:21:48;;;;;;;6.53;1.25;;;;;;;;;;5072628;28;20048;-71
2023/01/01 06:24:14;;;;;;;10.98;1.35;;;;;;;;;;5072339;28;20044;-71
2023/01/01 06:26:40;;;;;;;8.13;1.27;;;;;;;;;;5072583;28;20090;-72
2023/01/01 06:29:07;;;;;;;4.45;1.10;;;;;;;;;;5106467;28;20040;-71
2023/01/01 06:31:33;;;;;;;9.73;1.45;;;;;;;;;;5072440;28;20044;-71
2023/01/01 06:33:59;;;;;;;9.38;1.30;;;;;;;;;;5071637;28;20047;-71
2023/01/01 06:36:26;;;;;;;9.90;1.33;;;;;;;;;;5073638;28;20044;-71
2023/01/01 06:38:54;;;;;;;10.50;1.50;;;;;;;;;;5055623;28;20039;-71
2023/01/01 06:41:21;;;;;;;11.15;1.80;;;;;;;;;;5055651;28;20546;-71
2023/01/01 06:43:48;;;;;;;10.10;1.70;;;;;;;;;;5072110;28;20115;-71
2023/01/01 06:46:17;;;;;;;12.40;1.73;;;;;;;;;;5071679;28;20045;-71
2023/01/01 06:48:43;;;;;;;12.65;1.95;;;;;;;;;;5071970;28;20048;-71
2023/01/01 06:51:10;;;;;;;8.68;1.70;;;;;;;;;;5071331;28;20087;-71
2023/01/01 06:53:37;;;;;;;10.43;1.60;;;;;;;;;;5071980;28;20048;-71
2023/01/01 06:56:03;;;;;;;11.13;1.90;;;;;;;;;;5055314;28;20036;-71
2023/01/01 06:58:29;;;;;;;10.55;1.85;;;;;;;;;;5072039;28;20029;-71
2023/01/01 07:01:02;;;;;;;14.00;2.63;;;;;;;;;;5072017;28;20040;-71
2023/01/01 07:03:28;;;;;;;10.85;1.60;;;;;;;;;;5054820;28;20082;-71
2023/01/01 07:05:54;;;;;;;9.80;2.15;;;;;;;;;;5073141;28;20043;-71
2023/01/01 07:08:21;;;;;;;13.55;2.10;;;;;;;;;;5054747;28;20064;-71
2023/01/01 07:10:47;;;;;;;11.55;1.85;;;;;;;;;;5071483;28;20101;-71
2023/01/01 07:13:13;;;;;;;10.85;1.98;;;;;;;;;;5071227;28;20048;-71
2023/01/01 07:15:39;;;;;;;10.07;1.90;;;;;;;;;;5071631;28;20041;-71
2023/01/01 07:18:05;;;;;;;12.60;2.50;;;;;;;;;;5071331;28;20136;-71
2023/01/01 07:20:31;;;;;;;10.82;1.90;;;;;;;;;;5055318;28;20067;-71
2023/01/01 07:22:57;;;;;;;11.10;2.35;;;;;;;;;;5071325;28;20072;-71
2023/01/01 07:25:23;;;;;;;10.57;1.85;;;;;;;;;;5070752;28;20044;-71
2023/01/01 07:27:49;;;;;;;9.50;1.73;;;;;;;;;;5071300;28;20075;-71
2023/01/01 07:30:15;;;;;;;12.63;2.20;;;;;;;;;;5071298;28;20032;-71
2023/01/01 07:32:41;;;;;;;13.95;1.98;;;;;;;;;;5072658;28;20036;-71
2023/01/01 07:35:07;;;;;;;14.00;1.98;;;;;;;;;;5070385;28;20062;-71
2023/01/01 07:37:34;;;;;;;11.80;1.95;;;;;;;;;;5071053;28;20032;-71
2023/01/01 07:40:00;;;;;;;12.55;1.98;;;;;;;;;;5071030;28;20068;-71
2023/01/01 07:42:26;;;;;;;15.43;2.22;;;;;;;;;;5104457;28;20028;-71
2023/01/01 07:44:52;;;;;;;11.48;1.70;;;;;;;;;;5054471;28;20123;-72
2023/01/01 07:47:18;;;;;;;11.30;1.83;;;;;;;;;;5053906;28;20029;-71
2023/01/01 07:49:44;;;;;;;16.15;2.10;;;;;;;;;;5071364;28;20461;-71
2023/01/01 07:52:10;;;;;;;11.18;2.17;;;;;;;;;;5053663;28;20109;-71
2023/01/01 07:54:36;;;;;;;15.43;2.25;;;;;;;;;;5071128;28;20044;-71
2023/01/01 07:57:02;;;;;;;14.35;1.98;;;;;;;;;;5070946;28;20094;-71
2023/01/01 07:59:28;;;;;;;12.65;1.88;;;;;;;;;;5070629;28;20036;-71
2023/01/01 08:01:54;;;;;;;11.88;1.85;;;;;;;;;;5071032;28;20051;-72
2023/01/01 08:04:20;;;;;;;11.25;1.67;;;;;;;;;;5053952;28;20127;-71
2023/01/01 08:06:46;;;;;;;10.05;1.85;;;;;;;;;;5070869;28;20049;-71
2023/01/01 08:09:12;;;;;;;16.35;2.28;;;;;;;;;;5071984;28;20119;-71
2023/01/01 08:11:38;;;;;;;13.52;1.88;;;;;;;;;;5070970;28;20032;-71
2023/01/01 08:14:04;;;;;;;8.18;1.50;;;;;;;;;;5070357;28;20045;-71
2023/01/01 08:16:31;;;;;;;12.50;1.75;;;;;;;;;;5053746;28;20048;-71
2023/01/01 08:18:57;;;;;;;18.85;2.28;;;;;;;;;;5054204;28;20032;-72
2023/01/01 08:21:23;;;;;;;11.60;2.28;;;;;;;;;;5070295;28;20048;-72
2023/01/01 08:23:49;;;;;;;11.90;2.05;;;;;;;;;;5070748;28;20128;-71
2023/01/01 08:26:16;;;;;;;15.63;2.30;;;;;;;;;;5070495;28;20045;-72
2023/01/01 08:28:42;;;;;;;17.92;2.60;;;;;;;;;;5071969;28;20123;-71
2023/01/01 08:31:08;;;;;;;15.63;2.42;;;;;;;;;;5054106;28;20036;-71
2023/01/01 08:33:34;;;;;;;14.32;2.30;;;;;;;;;;5069423;28;20033;-71
2023/01/01 08:36:01;;;;;;;13.80;1.80;;;;;;;;;;5070968;28;20049;-71
2023/01/01 08:38:27;;;;;;;13.23;1.83;;;;;;;;;;5070194;28;20532;-71
2023/01/01 08:40:53;;;;;;;15.60;3.08;;;;;;;;;;5070795;28;20510;-71
2023/01/01 08:43:19;;;;;;;18.08;2.08;;;;;;;;;;5071468;28;20045;-71
2023/01/01 08:45:46;;;;;;;16.50;3.10;;;;;;;;;;5070417;28;20036;-71
2023/01/01 08:48:12;;;;;;;11.43;1.77;;;;;;;;;;5053930;28;20040;-71
2023/01/01 08:50:38;;;;;;;15.45;2.63;;;;;;;;;;5071216;28;20053;-71
2023/01/01 08:53:04;;;;;;;11.40;1.90;;;;;;;;;;5070417;28;20123;-71
2023/01/01 08:55:30;;;;;;;15.32;2.42;;;;;;;;;;5070080;28;20051;-71
2023/01/01 08:57:56;;;;;;;17.00;2.55;;;;;;;;;;5053680;28;20115;-72
2023/01/01 09:00:22;;;;;;;14.85;2.50;;;;;;;;;;5070016;28;20049;-72
2023/01/01 09:02:48;;;;;;;16.42;2.45;;;;;;;;;;5070365;28;20182;-71
2023/01/01 09:05:14;;;;;;;21.02;2.75;;;;;;;;;;5070543;28;20094;-71
2023/01/01 09:07:41;;;;;;;21.38;2.75;;;;;;;;;;5069844;28;20116;-71
2023/01/01 09:10:07;;;;;;;13.98;2.28;;;;;;;;;;5071406;28;20485;-71
2023/01/01 09:12:33;;;;;;;19.30;3.10;;;;;;;;;;5052988;28;20036;-71
2023/01/01 09:14:59;;;;;;;15.00;2.60;;;;;;;;;;5070190;28;20118;-71
2023/01/01 09:17:25;;;;;;;15.82;2.42;;;;;;;;;;5053274;28;20072;-71
2023/01/01 09:19:51;;;;;;;15.40;2.60;;;;;;;;;;5053712;28;20070;-71
2023/01/01 09:22:17;;;;;;;17.40;2.40;;;;;;;;;;5070239;28;20105;-71
2023/01/01 09:24:43;;;;;;;18.38;2.20;;;;;;;;;;5053054;28;20045;-71
2023/01/01 09:27:09;;;;;;;15.20;2.33;;;;;;;;;;5072408;28;20040;-71
2023/01/01 09:29:35;;;;;;;15.48;2.05;;;;;;;;;;5056558;28;20086;-71
2023/01/01 09:32:01;;;;;;;17.48;2.63;;;;;;;;;;5056929;28;20040;-72
2023/01/01 09:34:27;;;;;;;15.52;2.17;;;;;;;;;;5055771;28;20042;-71
2023/01/01 09:36:53;;;;;;;13.50;2.10;;;;;;;;;;5107444;28;20111;-72
2023/01/01 09:39:19;;;;;;;16.52;2.63;;;;;;;;;;5073457;28;20068;-71
2023/01/01 09:41:55;;;;;;;16.55;2.40;;;;;;;;;;5073248;28;20044;-71
2023/01/01 09:44:24;;;;;;;21.77;2.75;;;;;;;;;;5047795;28;20128;-71
2023/01/01 09:46:51;;;;;;;11.48;2.05;;;;;;;;;;5073665;28;20497;-71
2023/01/01 09:49:25;;;;;;;13.88;2.42;;;;;;;;;;5074663;28;20044;-71
2023/01/01 09:51:53;;;;;;;18.05;2.08;;;;;;;;;;5073132;28;20045;-71
2023/01/01 09:54:19;;;;;;;14.13;1.70;;;;;;;;;;5073250;28;20485;-71
2023/01/01 09:56:46;;;;;;;10.50;1.95;;;;;;;;;;5074386;28;20072;-72
2023/01/01 09:59:12;;;;;;;12.63;2.15;;;;;;;;;;5056388;28;20032;-71
2023/01/01 10:01:41;;;;;;;19.88;2.15;;;;;;;;;;5072978;28;20033;-71
2023/01/01 10:04:13;;;;;;;14.98;2.20;;;;;;;;;;5073734;28;20513;-71
2023/01/01 10:06:43;;;;;;;14.07;2.33;;;;;;;;;;5072655;28;20123;-71
2023/01/01 10:09:19;;;;;;;11.07;1.80;;;;;;;;;;5073092;28;20055;-71
2023/01/01 10:11:54;;;;;;;17.10;2.30;;;;;;;;;;5067781;28;20810;-72
2023/01/01 10:14:27;;;;;;;16.10;2.10;;;;;;;;;;5064836;28;20072;-71
2023/01/01 10:16:54;;;;;;;10.60;2.00;;;;;;;;;;5056568;28;20090;-72
2023/01/01 10:19:33;;;;;;;9.68;1.60;;;;;;;;;;5056350;28;20071;-72
2023/01/01 10:22:20;;;;;;;13.07;1.88;;;;;;;;;;5073874;28;20047;-72
2023/01/01 10:24:48;;;;;;;11.07;1.60;;;;;;;;;;5072241;28;20048;-72
2023/01/01 10:27:33;;;;;;;9.98;1.48;;;;;;;;;;5072920;28;20089;-72
2023/01/01 10:30:01;;;;;;;15.60;2.08;;;;;;;;;;5072272;28;20048;-71
2023/01/01 10:32:28;;;;;;;10.23;1.48;;;;;;;;;;5072510;28;20037;-72
2023/01/01 10:34:54;;;;;;;13.15;1.98;;;;;;;;;;5055281;28;20437;-72
2023/01/01 10:37:21;;;;;;;10.13;1.60;;;;;;;;;;5055634;28;20028;-72
2023/01/01 10:39:47;;;;;;;8.88;1.63;;;;;;;;;;5073509;28;20082;-72
2023/01/01 10:42:14;;;;;;;10.18;1.80;;;;;;;;;;5072477;28;20655;-73
2023/01/01 10:44:41;;;;;;;10.77;1.90;;;;;;;;;;5071673;28;20036;-72
2023/01/01 10:47:13;;;;;;;10.18;1.63;;;;;;;;;;5072500;28;20054;-72
2023/01/01 10:49:53;;;;;;;9.23;1.50;;;;;;;;;;5071716;28;20131;-72
2023/01/01 10:52:22;;;;;;;13.77;1.83;;;;;;;;;;5071738;28;20059;-72
2023/01/01 10:54:49;;;;;;;11.95;2.15;;;;;;;;;;5071951;28;20052;-72
2023/01/01 10:57:17;;;;;;;13.00;1.50;;;;;;;;;;5055550;28;20119;-72
2023/01/01 10:59:44;;;;;;;8.02;1.63;;;;;;;;;;5071454;28;20047;-71
2023/01/01 11:02:15;;;;;;;12.70;2.20;;;;;;;;;;5071766;28;20134;-71
2023/01/01 11:04:41;;;;;;;8.05;1.70;;;;;;;;;;5071300;28;20043;-72
2023/01/01 11:07:07;;;;;;;9.18;1.70;;;;;;;;;;5071982;28;20383;-71
2023/01/01 11:09:38;;;;;;;11.85;1.27;;;;;;;;;;5071444;28;20383;-72
2023/01/01 11:12:16;;;;;;;11.63;1.83;;;;;;;;;;5071499;28;20048;-72
2023/01/01 11:14:52;;;;;;;13.18;1.92;;;;;;;;;;5071008;28;20040;-72
2023/01/01 11:17:26;;;;;;;9.30;1.50;;;;;;;;;;5071638;28;20048;-71
2023/01/01 11:19:53;;;;;;;10.88;1.50;;;;;;;;;;5054704;28;20553;-72
2023/01/01 11:22:37;;;;;;;13.15;2.22;;;;;;;;;;5063912;28;20037;-72
2023/01/01 11:25:05;;;;;;;13.05;2.50;;;;;;;;;;5051404;28;20072;-72
2023/01/01 11:27:31;;;;;;;13.82;1.92;;;;;;;;;;5071411;28;20549;-71
2023/01/01 11:30:15;;;;;;;10.90;1.85;;;;;;;;;;5070616;28;20045;-71
2023/01/01 11:32:41;;;;;;;12.80;1.55;;;;;;;;;;5071041;28;20041;-71
2023/01/01 11:35:14;;;;;;;12.43;1.90;;;;;;;;;;5072015;28;20044;-71
2023/01/01 11:37:42;;;;;;;12.38;1.88;;;;;;;;;;5071000;28;20064;-71
2023/01/01 11:40:15;;;;;;;10.25;1.60;;;;;;;;;;5054406;28;20055;-71
2023/01/01 11:42:45;;;;;;;10.73;1.83;;;;;;;;;;5070696;28;20112;-72
2023/01/01 11:45:19;;;;;;;11.88;1.58;;;;;;;;;;5070930;28;20045;-72
2023/01/01 11:47:50;;;;;;;10.15;1.98;;;;;;;;;;5071219;28;20063;-72
2023/01/01 11:50:16;;;;;;;11.05;2.13;;;;;;;;;;5070902;28;20385;-72
2023/01/01 11:52:47;;;;;;;14.45;2.08;;;;;;;;;;5042859;28;20122;-72
2023/01/01 11:55:31;;;;;;;10.30;1.55;;;;;;;;;;5071420;28;20449;-72
2023/01/01 11:58:17;;;;;;;11.43;1.52;;;;;;;;;;5070913;28;20076;-71
2023/01/01 12:07:44;;;;;;;10.98;1.67;;;;;;;;;;5037959;28;20155;-78
2023/01/01 12:10:22;;;;;;;11.02;1.75;;;;;;;;;;5037009;28;20436;-78
2023/01/01 12:12:56;;;;;;;12.35;1.85;;;;;;;;;;5057736;28;20104;-79
2023/01/01 12:15:26;;;;;;;14.32;2.00;;;;;;;;;;5063628;28;20394;-79
2023/01/01 12:18:30;;;;;;;10.02;1.55;;;;;;;;;;5051416;28;20080;-78
2023/01/01 12:20:59;;;;;;;11.02;1.95;;;;;;;;;;5033782;28;20040;-78
2023/01/01 12:23:25;;;;;;;10.05;2.15;;;;;;;;;;5033410;28;20076;-77
2023/01/01 12:26:15;;;;;;;13.48;1.95;;;;;;;;;;5039238;28;20049;-76
2023/01/01 12:28:44;;;;;;;14.75;2.35;;;;;;;;;;5035623;28;20044;-76
2023/01/01 12:31:12;;;;;;;12.73;1.38;;;;;;;;;;5070513;28;20085;-77
2023/01/01 12:33:57;;;;;;;13.48;2.10;;;;;;;;;;5050520;28;20494;-77
2023/01/01 12:36:27;;;;;;;14.40;2.08;;;;;;;;;;5064291;28;20058;-76
2023/01/01 12:39:11;;;;;;;10.15;1.65;;;;;;;;;;5070361;28;20098;-77
2023/01/01 12:41:56;;;;;;;15.40;1.90;;;;;;;;;;5069971;28;20041;-77
2023/01/01 12:44:32;;;;;;;13.82;2.75;;;;;;;;;;5043579;28;20389;-77
2023/01/01 12:47:10;;;;;;;11.77;1.88;;;;;;;;;;5070136;28;20037;-76
2023/01/01 12:49:42;;;;;;;13.88;1.70;;;;;;;;;;5070781;28;20050;-76
2023/01/01 12:52:14;;;;;;;10.45;1.95;;;;;;;;;;5056047;28;20110;-77
2023/01/01 12:54:44;;;;;;;10.07;1.58;;;;;;;;;;5066380;28;20033;-76
2023/01/01 12:57:29;;;;;;;10.45;1.95;;;;;;;;;;5061660;28;20486;-78
2023/01/01 12:59:56;;;;;;;9.88;1.90;;;;;;;;;;5065544;28;20037;-77
2023/01/01 13:02:24;;;;;;;15.55;2.17;;;;;;;;;;5055854;28;20052;-77
2023/01/01 13:04:57;;;;;;;11.00;1.83;;;;;;;;;;5072052;28;20053;-77
2023/01/01 13:07:30;;;;;;;14.98;1.80;;;;;;;;;;5063335;28;20129;-77
2023/01/01 13:09:57;;;;;;;10.50;1.50;;;;;;;;;;5071979;28;20485;-77
2023/01/01 13:12:24;;;;;;;9.55;1.52;;;;;;;;;;5057319;28;20048;-77
2023/01/01 13:14:50;;;;;;;9.70;1.77;;;;;;;;;;5057014;28;20037;-77
2023/01/01 13:17:16;;;;;;;15.07;1.90;;;;;;;;;;5067100;28;20482;-77
2023/01/01 13:19:42;;;;;;;13.38;2.35;;;;;;;;;;5054021;28;20045;-77
2023/01/01 13:22:26;;;;;;;11.82;2.00;;;;;;;;;;5043649;28;20043;-78
2023/01/01 13:25:11;;;;;;;11.60;1.83;;;;;;;;;;5074158;28;20114;-77
2023/01/01 13:27:59;;;;;;;12.00;1.83;;;;;;;;;;5064927;28;20041;-78
2023/01/01 13:30:38;;;;;;;10.63;1.90;;;;;;;;;;5072373;28;20094;-77
2023/01/01 13:33:16;;;;;;;9.85;1.75;;;;;;;;;;5073771;28;20036;-77
2023/01/01 13:35:43;;;;;;;15.43;2.10;;;;;;;;;;5047517;28;20492;-77
2023/01/01 13:38:35;;;;;;;11.68;2.10;;;;;;;;;;5073491;28;20048;-77
2023/01/01 13:41:01;;;;;;;11.50;1.90;;;;;;;;;;5033925;28;20060;-77
2023/01/01 13:43:28;;;;;;;14.57;2.78;;;;;;;;;;5073827;28;20098;-77
2023/01/01 13:45:55;;;;;;;14.50;1.80;;;;;;;;;;5073394;28;20098;-77
2023/01/01 13:48:33;;;;;;;13.25;2.22;;;;;;;;;;5057192;28;20412;-77
2023/01/01 13:50:59;;;;;;;11.02;2.42;;;;;;;;;;5056226;28;20048;-77
2023/01/01 13:53:44;;;;;;;13.65;2.38;;;;;;;;;;5059014;28;20045;-78
2023/01/01 13:56:26;;;;;;;16.00;3.30;;;;;;;;;;5100039;28;20048;-77
2023/01/01 13:59:11;;;;;;;10.80;2.65;;;;;;;;;;5073317;28;20129;-77
2023/01/01 14:01:46;;;;;;;17.05;2.85;;;;;;;;;;5073777;28;20127;-78
2023/01/01 14:04:17;;;;;;;18.73;2.72;;;;;;;;;;5072859;28;20071;-77
2023/01/01 14:06:45;;;;;;;12.60;2.40;;;;;;;;;;5059369;28;20405;-80
2023/01/01 14:09:12;;;;;;;10.02;2.30;;;;;;;;;;5073292;28;20121;-79
2023/01/01 14:11:38;;;;;;;15.35;2.88;;;;;;;;;;5056234;28;20538;-78
2023/01/01 14:14:22;;;;;;;16.33;2.28;;;;;;;;;;5062983;28;20041;-77
2023/01/01 14:16:49;;;;;;;17.75;2.65;;;;;;;;;;5068873;28;20036;-77
2023/01/01 14:19:16;;;;;;;13.57;2.38;;;;;;;;;;5046670;28;20044;-77
2023/01/01 14:21:45;;;;;;;15.57;2.72;;;;;;;;;;5056186;28;20044;-77
2023/01/01 14:24:14;;;;;;;11.52;2.58;;;;;;;;;;5062163;28;20037;-78
2023/01/01 14:26:40;;;;;;;14.50;2.40;;;;;;;;;;5059128;28;20521;-77
2023/01/01 14:29:07;;;;;;;14.52;2.70;;;;;;;;;;5065206;28;20041;-78
2023/01/01 14:31:40;;;;;;;16.58;2.70;;;;;;;;;;5050055;28;20042;-77
2023/01/01 14:34:22;;;;;;;13.25;2.70;;;;;;;;;;5073220;28;20039;-77
2023/01/01 14:36:49;;;;;;;14.07;2.63;;;;;;;;;;5053019;28;20125;-78
2023/01/01 14:39:25;;;;;;;14.60;2.75;;;;;;;;;;5060826;28;20043;-78
2023/01/01 14:41:51;;;;;;;9.18;2.33;;;;;;;;;;5072777;28;20041;-77
2023/01/01 14:44:20;;;;;;;14.38;2.92;;;;;;;;;;5072882;28;20044;-77
2023/01/01 14:46:47;;;;;;;11.98;3.10;;;;;;;;;;5055923;28;20080;-78
2023/01/01 14:49:18;;;;;;;12.98;3.03;;;;;;;;;;5057870;28;20085;-78
2023/01/01 14:51:45;;;;;;;15.23;2.38;;;;;;;;;;5059949;28;20049;-77
2023/01/01 14:54:17;;;;;;;13.73;2.75;;;;;;;;;;5070029;28;20041;-78